Pagrindinis puslapis
METAR-TAF:

METAR-TAF

Oro uostai :

Kobė, Japonija

platuma: 34-37-58N, ilguma: 135-13-26E, Aukštis: 7 m

Dabartinis oras

Ataskaita buvo paskelbta 1 valandą ir 13 minutes, ne 05:00 UTC
Vėjas 7 kt iš Pietvakarių, svyruoja nuo Pietų ir Vakarų
Temperatūra 10°C
Drėgmė 62%
Slėgis 1029 hPa
Matomumas 10 km arba daugiau
Mažai debesys ne aukštis 4000 ft
Su prošvaistėmis

METAR: RJBE 200500Z 23007KT 180V260 9999 FEW040 BKN/// 10/03 Q1029

Laikas: 15:13 (06:13 UTC)


TAF: trūkstamas

Orai ataskaitas ir orų prognozės (METAR, TAF).

turimą stotys yra geltonos ir raudonos taškus žemėlapyje.

Perkelti pele per norėdami pamatyti stoties vardą.

Tada spustelėkite, norėdami matyti oro stebėjimo ir prognozės.

Norėdami pakeisti žemėlapį: spustelėkite ant žalios mygtukų su juodo kryžiaus žemyn,; žalią mygtuką su brūkšneliu, jei norite nutolinti; arba žalių rodyklių gretimoms žemėlapius.


METAR-TAF: